createdAt,value
2022-11-26T00:02:27.028Z,8.50
2022-11-26T00:05:14.930Z,8.50
2022-11-26T00:08:02.000Z,8.50
2022-11-26T00:10:50.957Z,8.50
2022-11-26T00:13:37.536Z,8.50
2022-11-26T00:16:23.946Z,8.50
2022-11-26T00:19:10.840Z,8.50
2022-11-26T00:21:57.196Z,8.50
2022-11-26T00:24:43.607Z,8.50
2022-11-26T00:27:29.516Z,8.50
2022-11-26T00:30:18.690Z,8.50
2022-11-26T00:33:04.932Z,8.50
2022-11-26T00:35:55.701Z,8.50
2022-11-26T00:38:42.050Z,8.50
2022-11-26T00:41:32.914Z,8.50
2022-11-26T00:44:24.893Z,8.50
2022-11-26T00:47:11.451Z,8.50
2022-11-26T00:49:57.625Z,8.50
2022-11-26T00:52:44.964Z,8.40
2022-11-26T00:55:34.191Z,8.50
2022-11-26T00:58:28.885Z,8.50
2022-11-26T01:01:20.923Z,8.50
2022-11-26T01:04:07.402Z,8.40
2022-11-26T01:06:53.405Z,8.40
2022-11-26T01:09:40.167Z,8.40
2022-11-26T01:12:26.300Z,8.50
2022-11-26T01:15:13.831Z,8.40
2022-11-26T01:18:00.252Z,8.30
2022-11-26T01:20:47.218Z,8.40
2022-11-26T01:23:33.245Z,8.50
2022-11-26T01:26:23.083Z,8.50
2022-11-26T01:29:16.239Z,8.40
2022-11-26T01:32:05.343Z,8.40
2022-11-26T01:34:51.515Z,8.40
2022-11-26T01:37:37.227Z,8.40
2022-11-26T01:40:36.298Z,8.40
2022-11-26T01:43:42.921Z,8.50
2022-11-26T01:46:34.290Z,8.50
2022-11-26T01:49:33.055Z,8.50
2022-11-26T01:52:26.048Z,8.50
2022-11-26T01:55:17.519Z,8.50
2022-11-26T01:58:05.713Z,8.50
2022-11-26T02:00:52.077Z,8.50
2022-11-26T02:04:00.590Z,8.50
2022-11-26T02:06:49.738Z,8.60
2022-11-26T02:09:35.847Z,8.60
2022-11-26T02:12:22.411Z,8.60
2022-11-26T02:15:09.866Z,8.70
2022-11-26T02:18:01.385Z,8.70
2022-11-26T02:20:53.494Z,8.70
2022-11-26T02:24:00.470Z,8.70
2022-11-26T02:27:23.995Z,8.70
2022-11-26T02:30:12.736Z,8.70
2022-11-26T02:33:09.052Z,8.80
2022-11-26T02:36:01.541Z,8.80
2022-11-26T02:38:53.026Z,8.80
2022-11-26T02:41:44.599Z,8.80
2022-11-26T02:44:36.448Z,8.90
2022-11-26T02:47:24.638Z,8.90
2022-11-26T02:50:19.635Z,9.00
2022-11-26T02:53:07.170Z,9.00
2022-11-26T02:56:13.776Z,9.00
2022-11-26T02:59:00.339Z,9.00
2022-11-26T03:02:11.399Z,9.00
2022-11-26T03:04:59.728Z,9.10
2022-11-26T03:07:49.302Z,9.10
2022-11-26T03:10:35.255Z,9.10
2022-11-26T03:13:21.097Z,9.10
2022-11-26T03:16:07.455Z,9.10
2022-11-26T03:18:56.022Z,9.10
2022-11-26T03:21:41.959Z,9.10
2022-11-26T03:24:28.089Z,9.10
2022-11-26T03:27:14.281Z,9.00
2022-11-26T03:30:00.117Z,9.10
2022-11-26T03:32:46.150Z,9.10
2022-11-26T03:35:31.996Z,9.10
2022-11-26T03:38:18.225Z,9.10
2022-11-26T03:41:05.547Z,9.00
2022-11-26T03:43:51.666Z,9.00
2022-11-26T03:46:37.861Z,9.00
2022-11-26T03:49:24.016Z,9.10
2022-11-26T03:52:10.008Z,9.00
2022-11-26T03:54:55.985Z,9.00
2022-11-26T03:57:41.814Z,9.00
2022-11-26T04:00:28.009Z,9.00
2022-11-26T04:03:15.489Z,9.00
2022-11-26T04:06:01.660Z,9.00
2022-11-26T04:08:47.802Z,9.00
2022-11-26T04:11:33.850Z,9.00
2022-11-26T04:14:19.899Z,8.90
2022-11-26T04:17:06.168Z,9.00
2022-11-26T04:19:52.566Z,9.00
2022-11-26T04:22:39.831Z,9.00
2022-11-26T04:25:26.258Z,9.00
2022-11-26T04:28:13.317Z,9.00
2022-11-26T04:30:59.379Z,9.00
2022-11-26T04:33:45.573Z,9.00
2022-11-26T04:36:31.740Z,9.00
2022-11-26T04:39:17.664Z,9.00
2022-11-26T04:42:06.659Z,9.00
2022-11-26T04:44:52.552Z,9.00
2022-11-26T04:47:42.724Z,9.00
2022-11-26T04:50:29.375Z,9.00
2022-11-26T04:53:16.578Z,9.10
2022-11-26T04:56:02.395Z,9.00
2022-11-26T04:58:48.360Z,9.00
2022-11-26T05:01:34.579Z,9.00
2022-11-26T05:04:20.505Z,9.00
2022-11-26T05:07:07.278Z,9.00
2022-11-26T05:09:53.564Z,9.10
2022-11-26T05:12:39.455Z,9.10
2022-11-26T05:15:25.926Z,9.10
2022-11-26T05:18:12.912Z,9.10
2022-11-26T05:20:59.669Z,9.10
2022-11-26T05:23:46.130Z,9.00
2022-11-26T05:26:31.972Z,9.10
2022-11-26T05:29:17.856Z,9.10
2022-11-26T05:32:04.052Z,9.10
2022-11-26T05:34:51.726Z,9.10
2022-11-26T05:37:39.648Z,9.10
2022-11-26T05:40:25.687Z,9.10
2022-11-26T05:43:11.477Z,9.10
2022-11-26T05:46:06.134Z,9.10
2022-11-26T05:48:52.135Z,9.10
2022-11-26T05:51:38.075Z,9.10
2022-11-26T05:54:23.965Z,9.10
2022-11-26T05:57:10.814Z,9.10
2022-11-26T05:59:56.551Z,9.10
2022-11-26T06:02:42.858Z,9.10
2022-11-26T06:05:29.355Z,9.10
2022-11-26T06:08:15.699Z,9.10
2022-11-26T06:11:04.615Z,9.00
2022-11-26T06:13:50.794Z,9.00
2022-11-26T06:16:37.003Z,9.00
2022-11-26T06:19:23.105Z,9.00
2022-11-26T06:22:09.523Z,9.00
2022-11-26T06:24:56.064Z,9.00
2022-11-26T06:27:42.516Z,8.90
2022-11-26T06:30:28.531Z,9.00
2022-11-26T06:33:14.321Z,9.00
2022-11-26T06:36:02.126Z,9.00
2022-11-26T06:38:48.174Z,8.90
2022-11-26T06:41:34.358Z,8.90
2022-11-26T06:44:20.289Z,9.00
2022-11-26T06:47:11.300Z,8.80
2022-11-26T06:49:57.150Z,8.80
2022-11-26T06:52:43.053Z,8.70
2022-11-26T06:55:28.925Z,8.70
2022-11-26T06:58:14.985Z,8.70
2022-11-26T07:01:06.875Z,8.70
2022-11-26T07:03:53.358Z,8.70
2022-11-26T07:06:40.262Z,8.60
2022-11-26T07:09:26.407Z,8.60
2022-11-26T07:12:12.131Z,8.60
2022-11-26T07:14:58.314Z,8.60
2022-11-26T07:17:44.516Z,8.50
2022-11-26T07:20:30.338Z,8.50
2022-11-26T07:23:16.098Z,8.50
2022-11-26T07:26:03.505Z,8.50
2022-11-26T07:28:50.155Z,8.40
2022-11-26T07:31:36.601Z,8.40
2022-11-26T07:34:22.612Z,8.30
2022-11-26T07:37:08.658Z,8.30
2022-11-26T07:39:54.791Z,8.30
2022-11-26T07:42:40.673Z,8.30
2022-11-26T07:45:26.706Z,8.20
2022-11-26T07:48:16.706Z,8.20
2022-11-26T07:51:03.915Z,8.10
2022-11-26T07:53:50.700Z,8.10
2022-11-26T07:56:36.967Z,8.10
2022-11-26T07:59:23.154Z,8.00
2022-11-26T08:02:16.097Z,8.00
2022-11-26T08:05:02.125Z,8.00
2022-11-26T08:07:48.031Z,8.00
2022-11-26T08:10:33.902Z,8.00
2022-11-26T08:13:20.022Z,8.00
2022-11-26T08:16:06.647Z,8.10
2022-11-26T08:18:57.427Z,8.10
2022-11-26T08:21:43.817Z,8.20
2022-11-26T08:24:31.212Z,8.10
2022-11-26T08:27:17.817Z,8.30
2022-11-26T08:30:07.670Z,8.40
2022-11-26T08:32:53.708Z,8.40
2022-11-26T08:36:05.478Z,8.50
2022-11-26T08:38:46.554Z,8.60
2022-11-26T08:41:32.482Z,8.60
2022-11-26T08:44:18.626Z,8.80
2022-11-26T08:47:04.754Z,9.00
2022-11-26T08:49:50.647Z,9.00
2022-11-26T08:52:37.732Z,9.10
2022-11-26T08:55:26.967Z,9.10
2022-11-26T08:58:13.049Z,9.20
2022-11-26T09:00:58.848Z,9.10
2022-11-26T09:03:47.864Z,9.20
2022-11-26T09:06:38.459Z,9.20
2022-11-26T09:09:24.474Z,9.30
2022-11-26T09:12:11.119Z,9.30
2022-11-26T09:14:57.459Z,9.40
2022-11-26T09:17:44.007Z,9.50
2022-11-26T09:20:30.109Z,9.50
2022-11-26T09:23:16.627Z,9.60
2022-11-26T09:26:02.625Z,9.70
2022-11-26T09:28:49.410Z,9.80
2022-11-26T09:31:35.430Z,9.80
2022-11-26T09:34:21.118Z,9.90
2022-11-26T09:37:07.232Z,10.00
2022-11-26T09:39:55.888Z,10.10
2022-11-26T09:43:18.787Z,10.10
2022-11-26T09:46:05.522Z,10.20
2022-11-26T09:48:54.766Z,10.30
2022-11-26T09:51:47.455Z,10.40
2022-11-26T09:54:34.163Z,10.40
2022-11-26T09:57:41.063Z,10.60
2022-11-26T10:00:31.409Z,10.70
2022-11-26T10:03:30.528Z,10.80
2022-11-26T10:06:19.543Z,10.90
2022-11-26T10:09:14.739Z,10.90
2022-11-26T10:12:25.813Z,11.00
2022-11-26T10:15:24.440Z,11.10
2022-11-26T10:18:29.503Z,11.10
2022-11-26T10:21:37.878Z,11.20
2022-11-26T10:24:39.073Z,11.30
2022-11-26T10:27:30.958Z,11.30
2022-11-26T10:30:23.625Z,11.40
2022-11-26T10:33:18.035Z,11.40
2022-11-26T10:36:08.981Z,11.50
2022-11-26T10:38:58.720Z,11.60
2022-11-26T10:41:45.419Z,11.60
2022-11-26T10:44:36.986Z,11.60
2022-11-26T10:47:28.111Z,11.70
2022-11-26T10:50:46.792Z,11.70
2022-11-26T10:53:35.986Z,11.80
2022-11-26T10:56:43.502Z,11.80
2022-11-26T10:59:36.367Z,11.90
2022-11-26T11:02:22.675Z,11.90
2022-11-26T11:05:09.612Z,11.90
2022-11-26T11:07:55.933Z,11.90
2022-11-26T11:10:58.075Z,11.90
2022-11-26T11:13:47.066Z,12.00
2022-11-26T11:16:43.866Z,12.00
2022-11-26T11:19:30.503Z,12.10
2022-11-26T11:22:23.193Z,12.10
2022-11-26T11:25:36.128Z,12.10
2022-11-26T11:28:26.532Z,12.20
2022-11-26T11:31:15.947Z,12.20
2022-11-26T11:34:19.225Z,12.20
2022-11-26T11:37:21.804Z,12.20
2022-11-26T11:40:17.475Z,12.20
2022-11-26T11:43:05.688Z,12.20
2022-11-26T11:46:12.683Z,12.20
2022-11-26T11:49:15.128Z,12.30
2022-11-26T11:52:16.094Z,12.30
2022-11-26T11:55:23.285Z,12.30
2022-11-26T11:58:31.678Z,12.30
2022-11-26T12:01:48.891Z,12.40
2022-11-26T12:05:00.192Z,12.40
2022-11-26T12:08:15.672Z,12.40
2022-11-26T12:11:19.317Z,12.50
2022-11-26T12:14:33.215Z,12.50
2022-11-26T12:17:35.806Z,12.50
2022-11-26T12:20:24.859Z,12.50
2022-11-26T12:23:29.387Z,12.50
2022-11-26T12:26:24.421Z,12.40
2022-11-26T12:29:30.667Z,12.40
2022-11-26T12:32:43.600Z,12.40
2022-11-26T12:35:34.920Z,12.50
2022-11-26T12:38:33.981Z,12.50
2022-11-26T12:41:28.747Z,12.50
2022-11-26T12:44:32.771Z,12.50
2022-11-26T12:47:30.244Z,12.60
2022-11-26T12:50:41.812Z,12.60
2022-11-26T12:53:38.431Z,12.60
2022-11-26T12:56:48.424Z,12.60
2022-11-26T13:00:05.563Z,12.60
2022-11-26T13:02:51.782Z,12.60
2022-11-26T13:06:11.827Z,12.70
2022-11-26T13:09:15.289Z,12.60
2022-11-26T13:12:10.959Z,12.70
2022-11-26T13:15:24.462Z,12.70
2022-11-26T13:18:40.474Z,12.80
2022-11-26T13:21:48.308Z,12.80
2022-11-26T13:24:45.442Z,12.80
2022-11-26T13:27:49.646Z,12.80
2022-11-26T13:31:15.091Z,12.80
2022-11-26T13:34:04.258Z,12.80
2022-11-26T13:37:26.979Z,12.70
2022-11-26T13:40:39.555Z,12.70
2022-11-26T13:43:44.312Z,12.70
2022-11-26T13:47:02.261Z,12.70
2022-11-26T13:49:59.211Z,12.60
2022-11-26T13:53:00.898Z,12.60
2022-11-26T13:55:58.408Z,12.60
2022-11-26T13:58:48.967Z,12.60
2022-11-26T14:01:40.601Z,12.60
2022-11-26T14:04:26.389Z,12.60
2022-11-26T14:07:12.324Z,12.50
2022-11-26T14:10:00.783Z,12.50
2022-11-26T14:13:01.934Z,12.50
2022-11-26T14:16:12.379Z,12.50
2022-11-26T14:19:00.588Z,12.50
2022-11-26T14:22:00.327Z,12.50
2022-11-26T14:24:49.718Z,12.50
2022-11-26T14:27:49.542Z,12.50
2022-11-26T14:30:36.193Z,12.50
2022-11-26T14:33:27.445Z,12.50
2022-11-26T14:36:28.341Z,12.50
2022-11-26T14:39:15.671Z,12.50
2022-11-26T14:42:06.077Z,12.40
2022-11-26T14:45:06.889Z,12.40
2022-11-26T14:47:53.148Z,12.40
2022-11-26T14:50:42.832Z,12.40
2022-11-26T14:53:33.459Z,12.30
2022-11-26T14:56:23.039Z,12.30
2022-11-26T14:59:15.180Z,12.30
2022-11-26T15:02:01.388Z,12.30
2022-11-26T15:05:01.971Z,12.30
2022-11-26T15:08:02.458Z,12.20
2022-11-26T15:11:01.187Z,12.20
2022-11-26T15:13:47.460Z,12.20
2022-11-26T15:16:41.429Z,12.20
2022-11-26T15:19:31.655Z,12.20
2022-11-26T15:22:27.563Z,12.20
2022-11-26T15:25:27.751Z,12.20
2022-11-26T15:28:22.821Z,12.20
2022-11-26T15:31:11.120Z,12.10
2022-11-26T15:33:57.225Z,12.10
2022-11-26T15:36:45.966Z,12.10
2022-11-26T15:39:31.933Z,12.10
2022-11-26T15:42:32.332Z,12.10
2022-11-26T15:45:20.873Z,12.00
2022-11-26T15:48:50.438Z,12.00
2022-11-26T15:51:37.292Z,12.00
2022-11-26T15:54:43.483Z,11.90
2022-11-26T15:57:40.947Z,11.90
2022-11-26T16:00:36.468Z,11.90
2022-11-26T16:03:43.382Z,11.90
2022-11-26T16:06:41.726Z,11.80
2022-11-26T16:09:31.795Z,11.80
2022-11-26T16:12:35.352Z,11.80
2022-11-26T16:15:24.954Z,11.80
2022-11-26T16:18:18.880Z,11.80
2022-11-26T16:21:08.133Z,11.80
2022-11-26T16:24:02.485Z,11.80
2022-11-26T16:27:06.681Z,11.70
2022-11-26T16:29:53.039Z,11.80
2022-11-26T16:32:39.191Z,11.80
2022-11-26T16:35:44.679Z,11.80
2022-11-26T16:38:31.883Z,11.80
2022-11-26T16:41:20.693Z,11.80
2022-11-26T16:44:07.259Z,11.80
2022-11-26T16:46:54.012Z,11.80
2022-11-26T16:49:40.080Z,11.80
2022-11-26T16:52:26.190Z,11.80
2022-11-26T16:55:17.563Z,11.80
2022-11-26T16:58:04.987Z,11.80
2022-11-26T17:00:51.245Z,11.90
2022-11-26T17:03:40.570Z,11.80
2022-11-26T17:06:30.840Z,11.80
2022-11-26T17:09:18.974Z,11.80
2022-11-26T17:12:05.448Z,11.80
2022-11-26T17:17:43.766Z,11.80
2022-11-26T17:20:29.630Z,11.90
2022-11-26T17:23:16.000Z,11.90
2022-11-26T17:26:03.886Z,11.80
2022-11-26T17:28:50.834Z,11.80
2022-11-26T17:31:37.410Z,11.90
2022-11-26T17:34:23.533Z,11.90
2022-11-26T17:37:27.419Z,11.90
2022-11-26T17:40:24.390Z,11.90
2022-11-26T17:43:10.862Z,11.90
2022-11-26T17:45:58.650Z,11.90
2022-11-26T17:48:45.737Z,11.90
2022-11-26T17:51:31.886Z,11.90
2022-11-26T17:54:17.873Z,11.90
2022-11-26T17:57:04.826Z,11.90
2022-11-26T17:59:51.057Z,11.90
2022-11-26T18:02:37.330Z,11.90
2022-11-26T18:05:24.208Z,12.00
2022-11-26T18:08:10.247Z,11.90
2022-11-26T18:10:56.194Z,11.90
2022-11-26T18:13:42.095Z,11.90
2022-11-26T18:16:28.436Z,11.90
2022-11-26T18:19:18.240Z,11.90
2022-11-26T18:22:04.455Z,11.90
2022-11-26T18:24:56.427Z,11.80
2022-11-26T18:27:43.718Z,11.80
2022-11-26T18:30:30.537Z,11.80
2022-11-26T18:33:17.219Z,11.80
2022-11-26T18:36:03.424Z,11.80
2022-11-26T18:38:49.728Z,11.70
2022-11-26T18:41:36.561Z,11.70
2022-11-26T18:44:22.865Z,11.70
2022-11-26T18:47:09.543Z,11.70
2022-11-26T18:49:59.345Z,11.70
2022-11-26T18:52:45.830Z,11.70
2022-11-26T18:55:34.231Z,11.70
2022-11-26T18:58:21.480Z,11.70
2022-11-26T19:01:25.426Z,11.70
2022-11-26T19:04:14.307Z,11.70
2022-11-26T19:07:00.145Z,11.70
2022-11-26T19:09:46.198Z,11.60
2022-11-26T19:12:32.050Z,11.70
2022-11-26T19:15:18.218Z,11.70
2022-11-26T19:18:04.700Z,11.70
2022-11-26T19:20:53.228Z,11.70
2022-11-26T19:23:39.079Z,11.60
2022-11-26T19:26:25.085Z,11.60
2022-11-26T19:29:12.353Z,11.60
2022-11-26T19:31:58.429Z,11.60
2022-11-26T19:34:44.578Z,11.60
2022-11-26T19:37:30.920Z,11.60
2022-11-26T19:40:17.116Z,11.70
2022-11-26T19:43:04.776Z,11.70
2022-11-26T19:45:53.103Z,11.70
2022-11-26T19:48:41.280Z,11.70
2022-11-26T19:51:27.774Z,11.70
2022-11-26T19:54:13.989Z,11.70
2022-11-26T19:56:59.740Z,11.70
2022-11-26T19:59:45.601Z,11.70
2022-11-26T20:02:31.935Z,11.70
2022-11-26T20:05:18.038Z,11.70
2022-11-26T20:08:05.410Z,11.80
2022-11-26T20:10:51.412Z,11.80
2022-11-26T20:13:39.962Z,11.80
2022-11-26T20:16:29.409Z,11.80
2022-11-26T20:19:15.697Z,11.80
2022-11-26T20:22:01.881Z,11.80
2022-11-26T20:24:47.843Z,11.80
2022-11-26T20:27:34.375Z,11.80
2022-11-26T20:30:22.286Z,11.80
2022-11-26T20:33:08.470Z,11.80
2022-11-26T20:35:54.689Z,11.80
2022-11-26T20:38:40.845Z,11.80
2022-11-26T20:41:28.147Z,11.90
2022-11-26T20:44:14.645Z,11.90
2022-11-26T20:47:00.734Z,11.90
2022-11-26T20:49:46.873Z,11.90
2022-11-26T20:52:34.375Z,11.90
2022-11-26T20:55:21.936Z,11.90
2022-11-26T20:58:07.840Z,11.90
2022-11-26T21:00:55.204Z,11.90
2022-11-26T21:03:41.498Z,11.90
2022-11-26T21:06:30.352Z,11.90
2022-11-26T21:09:16.891Z,11.90
2022-11-26T21:12:03.544Z,11.90
2022-11-26T21:14:49.781Z,12.00
2022-11-26T21:17:36.438Z,12.00
2022-11-26T21:20:22.549Z,12.00
2022-11-26T21:23:09.975Z,12.00
2022-11-26T21:25:56.185Z,12.00
2022-11-26T21:28:42.628Z,12.00
2022-11-26T21:31:30.564Z,12.00
2022-11-26T21:34:17.286Z,12.00
2022-11-26T21:37:03.380Z,12.00
2022-11-26T21:39:50.482Z,12.10
2022-11-26T21:42:36.749Z,12.10
2022-11-26T21:45:22.667Z,12.10
2022-11-26T21:48:08.494Z,12.00
2022-11-26T21:50:54.471Z,12.10
2022-11-26T21:53:40.530Z,12.10
2022-11-26T21:56:29.100Z,12.10
2022-11-26T21:59:15.187Z,12.10
2022-11-26T22:02:01.017Z,12.10
2022-11-26T22:04:47.298Z,12.10
2022-11-26T22:07:37.633Z,12.10
2022-11-26T22:10:24.468Z,12.10
2022-11-26T22:13:11.715Z,12.00
2022-11-26T22:15:58.310Z,12.10
2022-11-26T22:18:47.995Z,12.10
2022-11-26T22:21:36.859Z,12.10
2022-11-26T22:24:23.141Z,12.10
2022-11-26T22:27:08.986Z,12.10
2022-11-26T22:29:55.537Z,12.10
2022-11-26T22:32:42.003Z,12.10
2022-11-26T22:35:28.113Z,12.10
2022-11-26T22:38:14.606Z,12.10
2022-11-26T22:41:05.105Z,12.10
2022-11-26T22:43:51.992Z,12.10
2022-11-26T22:46:38.446Z,12.10
2022-11-26T22:49:24.752Z,12.10
2022-11-26T22:52:10.965Z,12.10
2022-11-26T22:54:57.296Z,12.10
2022-11-26T22:57:43.255Z,12.10
2022-11-26T23:00:52.526Z,12.10
2022-11-26T23:03:38.814Z,12.10
2022-11-26T23:06:29.359Z,12.10
2022-11-26T23:09:15.554Z,12.10
2022-11-26T23:12:01.507Z,12.10
2022-11-26T23:14:47.379Z,12.10
2022-11-26T23:17:33.221Z,12.00
2022-11-26T23:20:19.049Z,12.00
2022-11-26T23:23:06.074Z,12.00
2022-11-26T23:25:52.079Z,12.00
2022-11-26T23:28:38.610Z,11.90
2022-11-26T23:31:30.477Z,11.80
2022-11-26T23:34:16.951Z,11.70
2022-11-26T23:37:05.982Z,11.70
2022-11-26T23:39:52.495Z,11.60
2022-11-26T23:42:38.670Z,11.60
2022-11-26T23:45:24.538Z,11.50
2022-11-26T23:48:10.408Z,11.50
2022-11-26T23:50:56.904Z,11.40
2022-11-26T23:53:45.096Z,11.40
2022-11-26T23:56:33.783Z,11.30
2022-11-26T23:59:19.673Z,11.20
